Liberal, Missouri
Current Conditions -  °F | °C
As of 10:55 PM on Thursday 30 Oct 2014 (Local Time) from KPTS Reporting Station
Clear Clear  
Wind Chill: 56°   Ceiling: Unl
Heat Index: 56°   Visibility: 10mi
Dew Point: 44°   Wind: 6mph
Humidity: 63%   Direction: 350°N
Pressure: 30.16"   Gusts: NA
Location:  37.56°N, 94.52°W
Report Text: KPTS 310355Z AUTO 35005KT 10SM CLR 13/07 A3016 RMK AO2 T01330065
Loading
Personal Weather Stations






























Interactive Weather Map
Tropical Storm Tracking
New forecast layout! Learn more

10-Day Weather Forecast

Advertisements
Track Severe Weather on mobile